Redwood City, CA (94063)

9:37 AM PDT on August 29, 2014 (GMT -0700)
Centennial | Change Station
CLOSE
Current Station
Personal Weather Station
Location: Redwood City, CA
Elevation: 10 ft
Nearby Weather Stations

Elev 10 ft 37.50 °N, 122.24 °W | Updated 7 minutes ago

Mostly Cloudy
Mostly Cloudy
64.2 °F
Feels Like 64.2 °F
N
1.0
Wind Variable Wind from SE
Gusts 4.0 mph

Today
High -- | Low -- °F
--% Chance of Precip.
Yesterday
High -- | Low -- °F
Precip. -- in
6:36 AM 7:41 PM
Waxing Crescent, 15% visible
Pressure 29.96 in
Visibility 10.0 miles
Clouds Mostly Cloudy 1300 ft
Dew Point 58 °F
Humidity 80%
Rainfall 0.00 in
Snow Depth Not available.
UV 1 out of 12
Pollen 7.40 out of 12
PM2.5 Good
Flu Activity Not available.
METAR KSQL 291556Z 30006KT 10SM BKN013 17/14 A2996

More Conditions Fewer Conditions

Pressure 29.96 in
Visibility 10.0 miles
Clouds Mostly Cloudy 1300 ft
Dew Point 58 °F
Humidity 80%
Rainfall 0.00 in
Snow Depth Not available.
UV 1 out of 12
Pollen 7.40 out of 12
PM2.5 Good
Flu Activity Not available.
METAR KSQL 291556Z 30006KT 10SM BKN013 17/14 A2996

More Conditions Fewer Conditions

10-Day Weather Forecast

Almanac

Astronomy

Aug. 29, 2014 Rise Set
Actual Time 6:36 AM PDT 7:41 PM PDT
Civil Twilight 6:09 AM PDT 8:08 PM PDT
Nautical Twilight 5:37 AM PDT 8:40 PM PDT
Astronomical Twilight 5:04 AM PDT 9:13 PM PDT
Moon 10:25 AM PDT 9:48 PM PDT
Length of Visible Light 13h 59m
Length of Day
13h 05m
Tomorrow will be 2m 17s shorter.
Waxing Crescent, 15% of the Moon is Illuminated
Today
Waxing Crescent
Sep 2
First Quarter
Sep 8
Full
Sep 15
Last Quarter
Sep 24
New

Today's Extremes

State Highs State Lows

Community

WunderPhotos

Upload Photos

1,748,284 photos uploaded!

Nearby

Air Quality

  Air Quality AQ Index Pollutant
Yesterday Good
PM2.5
Yesterday Good
OZONE
Current Good
PM2.5
Friday Good
PM2.5
Saturday Good
PM2.5
Sunday Good
OZONE
Monday Good
OZONE
Tuesday Good
PM2.5

Snow Depth

Station Depth Elevation
Blue Lakes 0 in 8000 ft
Forestdale Creek 0 in 8029 ft
Echo Peak 0 in 7800 ft
Rubicon #2 0 in 7500 ft
Fallen Leaf 0 in 6300 ft

Earthquake Activity

City Distance Mag. Time & Date
Napa, California 52 miles 2.6 11:57 AM PDT
2014-08-27
The Geysers, California 97 miles 2.6 7:42 AM PDT
2014-08-27
Minimum magnitude displayed is 2.5.

Coastal Water Temperatures

Place Temperature
No Stations Reporting

Nearby Weather Stations